»·PEaware :: SWA581 KSFO-KLAS

SWA581 :: KSFO-KLAS

FLIGHT INFORMATION

Flight Status: Arrived
Operator:
Southwest Airlines
More flights by this operator :: More flights under this callsign
Pilot: Cody B. (17747)
Aircraft: BOEING 737-800
(B738)
More flights by this aircraft type
Origin: KSFO San Francisco Intl
United States
Destination: KLAS McCarran Intl
United States
More flights between these airports :: More routes between these airports
Route: +SSTIK3 NTELL Q162 ESSAA BTY SUNST4
File this flight plan on PilotEdge
Remarks:
Altitude:
(Current/Filed)
35,000ft
Speed:
(Current/Filed)
464kts
Departed: 11-Jul-18 05:36 PM
Arrived: 11-Jul-18 06:48 PM
Distance/Time
Traveled:
359nm/1:12
Distance/Time
To Go:
Arrived

Flight Plot

Page will automatically refresh every two minutes.

Flight plan parsing failed; only flown route is shown


Map Options




Map Legend


Flown Route
Filed Route
Departure Airport
Arrival Airport
Navaid (VOR, NDB)
Fix

Horizontal Profiles

Position Reports

Time Latitude Longitude Heading Altitude Ground
Speed
11-Jul-18 17:01 37.612636 -122.384669 6 21ft 0kts
11-Jul-18 17:02 37.612636 -122.384669 6 21ft 0kts
11-Jul-18 17:03 37.612636 -122.384669 6 21ft 0kts
11-Jul-18 17:04 37.612636 -122.384669 6 21ft 0kts
11-Jul-18 17:05 37.612636 -122.384669 6 21ft 0kts
11-Jul-18 17:06 37.612636 -122.384669 6 21ft 0kts
11-Jul-18 17:07 37.612636 -122.384669 6 21ft 0kts
11-Jul-18 17:08 37.612636 -122.384669 6 21ft 0kts
11-Jul-18 17:09 37.612636 -122.384669 6 21ft 0kts
11-Jul-18 17:10 37.612636 -122.384669 6 21ft 0kts
11-Jul-18 17:11 37.612636 -122.384669 6 21ft 0kts
11-Jul-18 17:12 37.612636 -122.384669 6 21ft 0kts
11-Jul-18 17:13 37.612636 -122.384669 6 21ft 0kts
11-Jul-18 17:14 37.612636 -122.384669 6 21ft 0kts
11-Jul-18 17:15 37.612636 -122.384669 6 21ft 0kts
11-Jul-18 17:16 37.612636 -122.384669 6 21ft 0kts
11-Jul-18 17:17 37.612636 -122.384669 6 21ft 0kts
11-Jul-18 17:18 37.612636 -122.384669 6 21ft 0kts
11-Jul-18 17:19 37.612636 -122.384669 6 21ft 0kts
11-Jul-18 17:20 37.612636 -122.384669 6 21ft 0kts
11-Jul-18 17:21 37.612636 -122.384669 6 21ft 0kts
11-Jul-18 17:22 37.612636 -122.384669 6 21ft 0kts
11-Jul-18 17:23 37.612636 -122.384669 6 21ft 0kts
11-Jul-18 17:24 37.612636 -122.384669 6 21ft 0kts
11-Jul-18 17:25 37.612636 -122.384669 6 21ft 0kts
11-Jul-18 17:26 37.612229 -122.384725 6 21ft 2kts
11-Jul-18 17:27 37.611640 -122.384806 6 21ft 2kts
11-Jul-18 17:28 37.611258 -122.385091 75 21ft 1kts
11-Jul-18 17:29 37.611256 -122.385098 75 20ft 0kts
11-Jul-18 17:30 37.611269 -122.385039 74 21ft 0kts
11-Jul-18 17:31 37.611377 -122.384063 106 20ft 0kts
11-Jul-18 17:32 37.611291 -122.383802 120 20ft 3kts
11-Jul-18 17:33 37.609420 -122.384637 210 20ft 10kts
11-Jul-18 17:34 37.608702 -122.384377 120 20ft 2kts
11-Jul-18 17:35 37.608425 -122.383762 119 21ft 0kts
11-Jul-18 17:36 37.608266 -122.383389 115 20ft 4kts
11-Jul-18 17:37 37.610149 -122.381447 27 21ft 46kts
11-Jul-18 17:38 37.645956 -122.357479 14 1162ft 187kts
11-Jul-18 17:39 37.695230 -122.374127 295 3034ft 220kts
11-Jul-18 17:40 37.666997 -122.432788 196 5322ft 253kts
11-Jul-18 17:41 37.595604 -122.450362 191 7895ft 274kts
11-Jul-18 17:42 37.519540 -122.466768 178 10055ft 294kts
11-Jul-18 17:43 37.451440 -122.412715 127 11987ft 322kts
11-Jul-18 17:44 37.402763 -122.319137 107 14211ft 336kts
11-Jul-18 17:45 37.382563 -122.204179 103 16466ft 346kts
11-Jul-18 17:46 37.359814 -122.085360 104 18548ft 355kts
11-Jul-18 17:47 37.335989 -121.964596 104 20457ft 364kts
11-Jul-18 17:48 37.311070 -121.839882 104 22205ft 373kts
11-Jul-18 17:49 37.285380 -121.712435 104 23718ft 385kts
11-Jul-18 17:50 37.258839 -121.581770 104 25239ft 391kts
11-Jul-18 17:51 37.231602 -121.448589 104 26644ft 398kts
11-Jul-18 17:52 37.203830 -121.313715 104 27871ft 405kts
11-Jul-18 17:53 37.176019 -121.179584 104 28930ft 414kts
11-Jul-18 17:54 37.147427 -121.042589 104 30247ft 413kts
11-Jul-18 17:55 37.118294 -120.903900 104 31486ft 411kts
11-Jul-18 17:56 37.089199 -120.766246 104 32593ft 408kts
11-Jul-18 17:57 37.060234 -120.630078 105 33568ft 406kts
11-Jul-18 17:58 37.031091 -120.493952 105 34421ft 405kts
11-Jul-18 17:59 37.001624 -120.357102 105 34845ft 415kts
11-Jul-18 18:00 36.971513 -120.218277 105 34843ft 437kts
11-Jul-18 18:01 36.939089 -120.069696 105 34834ft 447kts
11-Jul-18 18:02 36.910722 -119.919637 90 34837ft 447kts
11-Jul-18 18:03 36.941037 -119.769161 68 34814ft 450kts
11-Jul-18 18:04 36.987586 -119.624737 68 34815ft 449kts
11-Jul-18 18:05 37.034319 -119.480109 68 34815ft 450kts
11-Jul-18 18:06 37.080674 -119.336233 69 34816ft 450kts
11-Jul-18 18:07 37.126902 -119.192298 69 34814ft 449kts
11-Jul-18 18:08 37.173063 -119.047846 69 34971ft 450kts
11-Jul-18 18:09 37.218832 -118.903840 67 35242ft 446kts
11-Jul-18 18:10 37.256548 -118.784885 67 35169ft 445kts
11-Jul-18 18:11 37.285747 -118.635629 82 35076ft 446kts
11-Jul-18 18:12 37.299257 -118.481631 82 34980ft 444kts
11-Jul-18 18:13 37.312323 -118.333010 82 34982ft 445kts
11-Jul-18 18:14 37.325954 -118.179782 83 34983ft 445kts
11-Jul-18 18:15 37.339698 -118.026136 82 34983ft 444kts
11-Jul-18 18:16 37.351323 -117.872378 93 34977ft 445kts
11-Jul-18 18:17 37.336806 -117.717760 95 34983ft 445kts
11-Jul-18 18:18 37.322235 -117.563992 95 34981ft 445kts
11-Jul-18 18:19 37.308184 -117.409650 95 34982ft 445kts
11-Jul-18 18:20 37.270266 -117.268289 124 35118ft 451kts
11-Jul-18 18:21 37.195366 -117.143311 125 35171ft 449kts
11-Jul-18 18:22 37.120003 -117.019193 125 35140ft 449kts
11-Jul-18 18:23 37.031996 -116.910381 147 34993ft 455kts
11-Jul-18 18:24 36.922346 -116.833174 149 34982ft 454kts
11-Jul-18 18:25 36.813712 -116.757207 144 34975ft 453kts
11-Jul-18 18:26 36.728358 -116.646047 129 34164ft 440kts
11-Jul-18 18:27 36.648014 -116.531424 128 30713ft 436kts
11-Jul-18 18:28 36.570156 -116.420785 129 28319ft 418kts
11-Jul-18 18:29 36.496271 -116.316148 130 25654ft 406kts
11-Jul-18 18:30 36.422691 -116.212309 130 23216ft 397kts
11-Jul-18 18:31 36.350992 -116.111503 130 20836ft 380kts
11-Jul-18 18:32 36.282070 -116.014888 130 18625ft 370kts
11-Jul-18 18:33 36.215515 -115.921859 131 16538ft 359kts
11-Jul-18 18:34 36.172387 -115.817684 110 15265ft 320kts
11-Jul-18 18:35 36.140917 -115.718463 111 14257ft 307kts
11-Jul-18 18:36 36.109702 -115.620779 111 13342ft 305kts
11-Jul-18 18:37 36.078587 -115.524011 111 12414ft 302kts
11-Jul-18 18:38 36.048397 -115.430425 111 11524ft 284kts
11-Jul-18 18:39 36.027003 -115.340328 96 10609ft 272kts
11-Jul-18 18:40 36.020744 -115.249160 96 9541ft 269kts
11-Jul-18 18:41 36.014663 -115.159548 97 8704ft 258kts
11-Jul-18 18:42 36.015482 -115.069176 89 7157ft 277kts
11-Jul-18 18:43 36.019533 -114.976752 89 5137ft 263kts
11-Jul-18 18:44 36.032823 -114.899808 23 4630ft 224kts
11-Jul-18 18:45 36.071964 -114.947030 279 4952ft 223kts
11-Jul-18 18:46 36.074067 -115.025517 265 3832ft 214kts
11-Jul-18 18:47 36.073528 -115.085650 267 2754ft 156kts
11-Jul-18 18:48 36.073614 -115.139354 269 2149ft 117kts
11-Jul-18 18:49 36.073992 -115.148762 288 2149ft 11kts
11-Jul-18 18:50 36.075384 -115.151386 330 2149ft 7kts
11-Jul-18 18:51 36.077299 -115.152540 334 2149ft 2kts
11-Jul-18 18:52 36.077383 -115.152590 334 2149ft 0kts
11-Jul-18 18:53 36.077962 -115.152403 64 2149ft 6kts
11-Jul-18 18:54 36.077903 -115.149017 92 2149ft 9kts
11-Jul-18 18:55 36.078791 -115.147377 8 2149ft 5kts
11-Jul-18 18:56 36.079623 -115.147632 43 2149ft 0kts
11-Jul-18 18:57 36.079908 -115.147149 57 2149ft 0kts
11-Jul-18 18:58 36.079923 -115.147120 57 2149ft 0kts
11-Jul-18 18:59 36.079923 -115.147121 57 2149ft 0kts
11-Jul-18 19:00 36.079923 -115.147121 57 2149ft 0kts

Navigation Log

Ident Type
Flight plan parsing failed, navigation log unavailable